createdAt,value
2018-05-02T00:01:15.030Z,2.43
2018-05-02T00:03:18.441Z,1.87
2018-05-02T00:05:21.828Z,1.90
2018-05-02T00:07:25.213Z,1.73
2018-05-02T00:09:28.728Z,1.90
2018-05-02T00:11:32.142Z,1.87
2018-05-02T00:13:35.595Z,1.70
2018-05-02T00:15:39.055Z,1.63
2018-05-02T00:17:42.570Z,1.53
2018-05-02T00:19:46.004Z,1.73
2018-05-02T00:21:49.413Z,1.80
2018-05-02T00:23:52.802Z,1.87
2018-05-02T00:25:56.286Z,1.60
2018-05-02T00:27:59.670Z,1.67
2018-05-02T00:30:03.178Z,1.80
2018-05-02T00:32:06.787Z,2.27
2018-05-02T00:34:10.232Z,1.77
2018-05-02T00:36:13.779Z,1.73
2018-05-02T00:38:17.329Z,1.50
2018-05-02T00:40:20.755Z,1.80
2018-05-02T00:42:24.233Z,1.60
2018-05-02T00:44:27.660Z,1.60
2018-05-02T00:46:31.126Z,1.60
2018-05-02T00:48:34.122Z,1.60
2018-05-02T00:50:37.548Z,1.87
2018-05-02T00:52:41.080Z,1.60
2018-05-02T00:54:44.453Z,1.70
2018-05-02T00:56:47.886Z,1.57
2018-05-02T00:58:51.309Z,1.70
2018-05-02T01:00:54.769Z,1.97
2018-05-02T01:02:58.239Z,1.80
2018-05-02T01:05:01.656Z,1.50
2018-05-02T01:07:05.157Z,1.60
2018-05-02T01:09:08.601Z,1.60
2018-05-02T01:11:12.101Z,1.73
2018-05-02T01:13:15.770Z,1.60
2018-05-02T01:15:19.301Z,1.50
2018-05-02T01:17:22.684Z,1.50
2018-05-02T01:19:26.095Z,1.77
2018-05-02T01:21:30.564Z,1.57
2018-05-02T01:23:34.027Z,1.80
2018-05-02T01:25:37.452Z,1.50
2018-05-02T01:27:41.006Z,1.50
2018-05-02T01:29:44.388Z,1.50
2018-05-02T01:31:47.890Z,1.50
2018-05-02T01:33:51.327Z,1.43
2018-05-02T01:35:54.837Z,1.80
2018-05-02T01:37:58.221Z,1.60
2018-05-02T01:40:01.742Z,1.70
2018-05-02T01:42:05.222Z,1.30
2018-05-02T01:44:08.672Z,1.67
2018-05-02T01:46:12.111Z,1.70
2018-05-02T01:48:15.528Z,1.70
2018-05-02T01:50:18.961Z,1.30
2018-05-02T01:52:22.433Z,1.27
2018-05-02T01:54:25.931Z,1.70
2018-05-02T01:56:29.330Z,1.60
2018-05-02T01:58:32.718Z,1.40
2018-05-02T02:00:36.129Z,1.50
2018-05-02T02:02:39.537Z,1.43
2018-05-02T02:04:43.078Z,1.60
2018-05-02T02:06:46.673Z,1.70
2018-05-02T02:08:50.064Z,1.60
2018-05-02T02:10:53.472Z,1.60
2018-05-02T02:12:56.857Z,1.40
2018-05-02T02:15:00.075Z,1.60
2018-05-02T02:17:03.522Z,1.73
2018-05-02T02:19:07.014Z,1.90
2018-05-02T02:21:10.397Z,1.57
2018-05-02T02:23:13.787Z,1.50
2018-05-02T02:25:17.217Z,1.50
2018-05-02T02:27:20.663Z,1.53
2018-05-02T02:29:24.235Z,1.33
2018-05-02T02:31:27.653Z,1.30
2018-05-02T02:33:31.248Z,1.27
2018-05-02T02:35:34.684Z,1.50
2018-05-02T02:37:38.084Z,1.23
2018-05-02T02:39:41.559Z,1.30
2018-05-02T02:41:45.050Z,1.60
2018-05-02T02:43:48.556Z,1.23
2018-05-02T02:45:51.974Z,1.23
2018-05-02T02:47:55.386Z,1.40
2018-05-02T02:49:58.840Z,1.40
2018-05-02T02:52:02.275Z,1.53
2018-05-02T02:54:05.725Z,1.50
2018-05-02T02:56:09.112Z,1.40
2018-05-02T02:58:12.562Z,1.77
2018-05-02T03:00:16.085Z,1.30
2018-05-02T03:02:19.516Z,1.40
2018-05-02T03:04:23.026Z,1.40
2018-05-02T03:06:26.635Z,1.50
2018-05-02T03:08:30.143Z,1.20
2018-05-02T03:10:33.590Z,1.27
2018-05-02T03:12:37.140Z,1.37
2018-05-02T03:14:40.545Z,1.33
2018-05-02T03:16:44.073Z,1.40
2018-05-02T03:18:47.458Z,1.33
2018-05-02T03:20:50.887Z,1.30
2018-05-02T03:22:54.269Z,1.30
2018-05-02T03:24:57.475Z,1.50
2018-05-02T03:27:00.928Z,1.10
2018-05-02T03:29:04.462Z,1.57
2018-05-02T03:31:08.213Z,1.30
2018-05-02T03:33:12.151Z,1.10
2018-05-02T03:35:15.637Z,1.40
2018-05-02T03:37:19.124Z,1.40
2018-05-02T03:39:22.531Z,1.50
2018-05-02T03:41:25.976Z,1.40
2018-05-02T03:43:29.370Z,1.13
2018-05-02T03:45:32.800Z,1.30
2018-05-02T03:47:36.192Z,1.10
2018-05-02T03:49:39.594Z,1.27
2018-05-02T03:51:42.981Z,1.40
2018-05-02T03:53:46.493Z,1.10
2018-05-02T03:55:49.906Z,1.30
2018-05-02T03:57:53.299Z,1.30
2018-05-02T04:00:07.759Z,1.10
2018-05-02T04:02:22.392Z,1.17
2018-05-02T04:04:37.127Z,1.40
2018-05-02T04:06:54.787Z,1.10
2018-05-02T04:08:58.593Z,1.17
2018-05-02T04:11:01.952Z,1.10
2018-05-02T04:13:05.507Z,1.20
2018-05-02T04:15:09.974Z,1.20
2018-05-02T04:17:13.411Z,1.20
2018-05-02T04:19:16.813Z,1.23
2018-05-02T04:21:20.207Z,1.10
2018-05-02T04:23:23.455Z,1.40
2018-05-02T04:25:26.851Z,1.20
2018-05-02T04:27:30.226Z,1.10
2018-05-02T04:29:33.605Z,1.40
2018-05-02T04:31:37.012Z,1.40
2018-05-02T04:33:40.572Z,1.70
2018-05-02T04:35:45.350Z,1.20
2018-05-02T04:37:49.873Z,1.13
2018-05-02T04:39:53.626Z,1.37
2018-05-02T04:41:57.273Z,1.27
2018-05-02T04:44:00.656Z,1.40
2018-05-02T04:46:04.053Z,1.20
2018-05-02T04:48:07.467Z,1.17
2018-05-02T04:50:10.834Z,1.20
2018-05-02T04:52:14.274Z,1.20
2018-05-02T04:54:17.676Z,1.30
2018-05-02T04:56:21.069Z,1.10
2018-05-02T04:58:24.444Z,1.30
2018-05-02T05:00:27.990Z,1.30
2018-05-02T05:02:31.443Z,1.50
2018-05-02T05:04:35.698Z,1.27
2018-05-02T05:06:42.930Z,1.60
2018-05-02T05:08:46.685Z,1.33
2018-05-02T05:10:50.060Z,1.30
2018-05-02T05:12:53.546Z,1.37
2018-05-02T05:14:56.940Z,1.30
2018-05-02T05:17:00.323Z,1.50
2018-05-02T05:19:03.699Z,1.23
2018-05-02T05:21:07.130Z,1.20
2018-05-02T05:23:10.538Z,1.27
2018-05-02T05:25:14.084Z,1.40
2018-05-02T05:27:17.585Z,0.83
2018-05-02T05:29:20.971Z,1.27
2018-05-02T05:31:24.507Z,1.40
2018-05-02T05:33:28.355Z,1.30
2018-05-02T05:35:32.114Z,1.53
2018-05-02T05:37:35.610Z,1.10
2018-05-02T05:39:38.978Z,1.33
2018-05-02T05:41:42.615Z,1.30
2018-05-02T05:43:46.539Z,1.10
2018-05-02T05:45:49.942Z,1.33
2018-05-02T05:47:53.326Z,1.20
2018-05-02T05:49:56.706Z,1.30
2018-05-02T05:52:00.086Z,1.40
2018-05-02T05:54:03.771Z,1.20
2018-05-02T05:56:07.813Z,1.40
2018-05-02T05:58:11.218Z,1.30
2018-05-02T06:00:14.602Z,1.50
2018-05-02T06:02:17.981Z,1.17
2018-05-02T06:04:22.645Z,1.20
2018-05-02T06:06:26.007Z,1.00
2018-05-02T06:08:29.135Z,1.43
2018-05-02T06:10:32.542Z,1.30
2018-05-02T06:12:36.049Z,1.50
2018-05-02T06:14:39.723Z,1.50
2018-05-02T06:16:43.232Z,1.30
2018-05-02T06:18:46.668Z,1.37
2018-05-02T06:20:50.233Z,1.30
2018-05-02T06:22:53.598Z,1.40
2018-05-02T06:24:56.818Z,1.30
2018-05-02T06:27:00.264Z,1.30
2018-05-02T06:29:03.642Z,1.30
2018-05-02T06:31:07.046Z,1.23
2018-05-02T06:33:11.291Z,1.70
2018-05-02T06:35:14.753Z,1.30
2018-05-02T06:37:18.184Z,1.60
2018-05-02T06:39:21.375Z,1.30
2018-05-02T06:41:24.862Z,1.33
2018-05-02T06:43:28.381Z,1.20
2018-05-02T06:45:31.883Z,1.30
2018-05-02T06:47:35.273Z,1.00
2018-05-02T06:49:38.679Z,1.30
2018-05-02T06:51:42.091Z,1.10
2018-05-02T06:53:45.598Z,1.20
2018-05-02T06:55:48.780Z,1.30
2018-05-02T06:57:52.182Z,1.30
2018-05-02T06:59:55.681Z,1.63
2018-05-02T07:01:59.195Z,1.30
2018-05-02T07:04:02.381Z,1.50
2018-05-02T07:06:05.851Z,1.30
2018-05-02T07:08:09.238Z,1.47
2018-05-02T07:10:12.637Z,1.20
2018-05-02T07:12:16.036Z,1.40
2018-05-02T07:14:19.510Z,1.40
2018-05-02T07:16:22.885Z,1.70
2018-05-02T07:18:26.278Z,1.30
2018-05-02T07:20:29.693Z,1.37
2018-05-02T07:22:33.127Z,1.37
2018-05-02T07:24:36.599Z,1.40
2018-05-02T07:26:40.038Z,1.40
2018-05-02T07:28:43.616Z,1.53
2018-05-02T07:30:47.051Z,1.17
2018-05-02T07:32:50.563Z,1.90
2018-05-02T07:34:54.087Z,1.33
2018-05-02T07:36:57.506Z,1.60
2018-05-02T07:39:00.885Z,1.10
2018-05-02T07:41:04.366Z,1.30
2018-05-02T07:43:07.792Z,1.07
2018-05-02T07:45:11.258Z,1.20
2018-05-02T07:47:14.663Z,1.40
2018-05-02T07:49:18.064Z,1.30
2018-05-02T07:51:21.476Z,1.50
2018-05-02T07:53:24.861Z,1.27
2018-05-02T07:55:28.235Z,1.20
2018-05-02T07:57:31.603Z,1.20
2018-05-02T07:59:35.023Z,1.27
2018-05-02T08:01:38.430Z,1.40
2018-05-02T08:03:41.815Z,1.20
2018-05-02T08:05:45.194Z,1.30
2018-05-02T08:07:48.646Z,1.20
2018-05-02T08:09:52.039Z,1.43
2018-05-02T08:11:55.479Z,1.20
2018-05-02T08:13:58.869Z,1.20
2018-05-02T08:16:02.344Z,1.23
2018-05-02T08:18:05.850Z,1.20
2018-05-02T08:20:09.230Z,1.10
2018-05-02T08:22:12.605Z,1.13
2018-05-02T08:24:15.997Z,1.17
2018-05-02T08:26:21.011Z,1.27
2018-05-02T08:28:24.433Z,1.40
2018-05-02T08:30:27.798Z,1.30
2018-05-02T08:32:31.184Z,1.30
2018-05-02T08:34:34.719Z,1.20
2018-05-02T08:36:38.109Z,1.20
2018-05-02T08:38:41.585Z,1.20
2018-05-02T08:40:45.076Z,1.17
2018-05-02T08:42:48.581Z,1.40
2018-05-02T08:44:52.097Z,1.37
2018-05-02T08:46:55.558Z,1.20
2018-05-02T08:48:59.016Z,1.13
2018-05-02T08:51:02.471Z,1.27
2018-05-02T08:53:05.966Z,1.30
2018-05-02T08:55:09.385Z,1.03
2018-05-02T08:57:13.422Z,1.47
2018-05-02T08:59:17.681Z,1.30
2018-05-02T09:01:21.078Z,1.20
2018-05-02T09:03:24.446Z,1.20
2018-05-02T09:05:28.069Z,1.43
2018-05-02T09:07:31.456Z,1.30
2018-05-02T09:09:34.976Z,1.20
2018-05-02T09:11:38.395Z,1.00
2018-05-02T09:13:41.778Z,1.27
2018-05-02T09:15:45.907Z,1.10
2018-05-02T09:17:49.299Z,1.33
2018-05-02T09:19:52.737Z,1.50
2018-05-02T09:21:56.235Z,1.50
2018-05-02T09:23:59.621Z,1.27
2018-05-02T09:26:02.994Z,1.30
2018-05-02T09:28:06.379Z,1.30
2018-05-02T09:30:09.743Z,1.17
2018-05-02T09:32:13.305Z,1.33
2018-05-02T09:34:16.709Z,1.30
2018-05-02T09:36:20.065Z,1.20
2018-05-02T09:38:23.456Z,1.10
2018-05-02T09:40:26.828Z,1.27
2018-05-02T09:42:30.419Z,1.23
2018-05-02T09:44:33.847Z,1.20
2018-05-02T09:46:37.228Z,1.10
2018-05-02T09:48:40.633Z,1.30
2018-05-02T09:50:44.130Z,1.40
2018-05-02T09:52:47.574Z,1.30
2018-05-02T09:54:51.163Z,1.40
2018-05-02T09:56:54.558Z,1.50
2018-05-02T09:58:58.140Z,1.10
2018-05-02T10:01:01.606Z,1.20
2018-05-02T10:03:05.055Z,1.20
2018-05-02T10:05:10.836Z,1.27
2018-05-02T10:07:14.857Z,1.73
2018-05-02T10:09:18.658Z,1.30
2018-05-02T10:11:24.384Z,1.10
2018-05-02T10:13:28.170Z,1.40
2018-05-02T10:15:32.385Z,1.40
2018-05-02T10:17:36.715Z,1.20
2018-05-02T10:19:40.096Z,1.30
2018-05-02T10:21:43.479Z,1.23
2018-05-02T10:23:47.032Z,1.17
2018-05-02T10:25:51.831Z,1.30
2018-05-02T10:27:55.343Z,1.53
2018-05-02T10:30:00.552Z,1.20
2018-05-02T10:32:04.001Z,1.00
2018-05-02T10:34:07.764Z,1.30
2018-05-02T10:36:11.303Z,1.13
2018-05-02T10:38:14.826Z,1.10
2018-05-02T10:40:18.191Z,1.20
2018-05-02T10:42:21.714Z,1.20
2018-05-02T10:44:25.090Z,1.20
2018-05-02T10:46:28.598Z,1.17
2018-05-02T10:48:32.136Z,1.20
2018-05-02T10:50:35.685Z,1.30
2018-05-02T10:52:39.374Z,1.30
2018-05-02T10:54:42.781Z,1.00
2018-05-02T10:56:46.311Z,1.10
2018-05-02T10:58:49.904Z,0.90
2018-05-02T11:00:53.790Z,1.43
2018-05-02T11:02:57.222Z,1.10
2018-05-02T11:05:00.630Z,1.30
2018-05-02T11:07:04.003Z,1.30
2018-05-02T11:09:07.564Z,1.20
2018-05-02T11:11:11.092Z,1.13
2018-05-02T11:13:14.573Z,1.10
2018-05-02T11:15:17.969Z,1.00
2018-05-02T11:17:21.615Z,1.30
2018-05-02T11:19:25.072Z,1.40
2018-05-02T11:21:28.654Z,1.43
2018-05-02T11:23:32.155Z,1.10
2018-05-02T11:25:35.610Z,1.10
2018-05-02T11:27:38.997Z,1.20
2018-05-02T11:29:42.632Z,1.27
2018-05-02T11:31:45.999Z,1.03
2018-05-02T11:33:49.415Z,1.20
2018-05-02T11:35:52.825Z,1.23
2018-05-02T11:37:56.376Z,1.50
2018-05-02T11:39:59.795Z,1.50
2018-05-02T11:42:03.293Z,1.43
2018-05-02T11:44:06.686Z,1.47
2018-05-02T11:46:10.333Z,1.77
2018-05-02T11:48:14.083Z,1.60
2018-05-02T11:50:17.690Z,1.40
2018-05-02T11:52:21.432Z,1.50
2018-05-02T11:54:25.089Z,1.40
2018-05-02T11:56:28.782Z,1.50
2018-05-02T11:58:32.466Z,1.60
2018-05-02T12:00:36.230Z,1.50
2018-05-02T12:02:39.649Z,1.70
2018-05-02T12:04:43.271Z,1.63
2018-05-02T12:06:47.174Z,1.43
2018-05-02T12:08:50.976Z,1.60
2018-05-02T12:10:54.578Z,1.30
2018-05-02T12:12:58.179Z,1.20
2018-05-02T12:15:01.591Z,1.43
2018-05-02T12:17:05.399Z,1.37
2018-05-02T12:19:08.951Z,1.30
2018-05-02T12:21:12.559Z,1.67
2018-05-02T12:23:16.671Z,1.43
2018-05-02T12:25:20.125Z,1.23
2018-05-02T12:27:23.536Z,1.40
2018-05-02T12:29:27.407Z,1.43
2018-05-02T12:31:30.945Z,1.37
2018-05-02T12:33:34.457Z,1.57
2018-05-02T12:35:37.847Z,1.20
2018-05-02T12:37:41.193Z,1.20
2018-05-02T12:39:44.673Z,1.17
2018-05-02T12:41:48.262Z,1.43
2018-05-02T12:43:51.634Z,1.37
2018-05-02T12:45:55.220Z,1.17
2018-05-02T12:47:58.789Z,1.30
2018-05-02T12:50:02.421Z,1.10
2018-05-02T12:52:06.274Z,1.40
2018-05-02T12:54:10.051Z,1.37
2018-05-02T12:56:13.648Z,1.40
2018-05-02T12:58:17.481Z,1.40
2018-05-02T13:00:21.271Z,1.30
2018-05-02T13:02:25.067Z,1.20
2018-05-02T13:04:28.961Z,1.27
2018-05-02T13:06:33.055Z,1.37
2018-05-02T13:08:36.750Z,1.20
2018-05-02T13:10:40.261Z,1.40
2018-05-02T13:12:43.676Z,1.20
2018-05-02T13:14:47.084Z,1.20
2018-05-02T13:16:50.622Z,1.40
2018-05-02T13:18:54.569Z,1.10
2018-05-02T13:20:59.845Z,1.03
2018-05-02T13:23:03.776Z,1.10
2018-05-02T13:25:07.555Z,1.40
2018-05-02T13:27:11.157Z,1.30
2018-05-02T13:29:14.782Z,1.40
2018-05-02T13:31:18.660Z,1.20
2018-05-02T13:33:22.838Z,1.20
2018-05-02T13:35:26.416Z,1.10
2018-05-02T13:37:30.151Z,1.03
2018-05-02T13:39:33.607Z,1.00
2018-05-02T13:41:37.266Z,1.20
2018-05-02T13:43:40.955Z,1.00
2018-05-02T13:45:44.473Z,1.33
2018-05-02T13:47:48.247Z,1.10
2018-05-02T13:49:52.377Z,1.20
2018-05-02T13:51:56.037Z,1.47
2018-05-02T13:53:59.842Z,1.10
2018-05-02T13:56:03.477Z,1.27
2018-05-02T13:58:07.207Z,1.00
2018-05-02T14:00:10.860Z,1.00
2018-05-02T14:02:14.259Z,1.30
2018-05-02T14:04:17.677Z,1.10
2018-05-02T14:06:21.101Z,1.10
2018-05-02T14:08:24.493Z,1.00
2018-05-02T14:10:28.082Z,1.57
2018-05-02T14:12:31.456Z,1.10
2018-05-02T14:14:34.915Z,1.10
2018-05-02T14:16:38.296Z,0.90
2018-05-02T14:18:41.743Z,1.00
2018-05-02T14:20:45.807Z,1.10
2018-05-02T14:22:49.199Z,1.27
2018-05-02T14:24:52.731Z,1.10
2018-05-02T14:26:56.495Z,1.00
2018-05-02T14:29:00.300Z,0.97
2018-05-02T14:31:03.710Z,0.87
2018-05-02T14:33:07.122Z,0.70
2018-05-02T14:35:10.576Z,0.83
2018-05-02T14:37:14.345Z,1.00
2018-05-02T14:39:18.700Z,1.00
2018-05-02T14:41:22.497Z,1.00
2018-05-02T14:43:26.200Z,0.97
2018-05-02T14:45:30.060Z,1.00
2018-05-02T14:47:34.089Z,1.00
2018-05-02T14:49:37.619Z,0.97
2018-05-02T14:51:41.200Z,0.93
2018-05-02T14:53:45.212Z,1.07
2018-05-02T14:55:48.638Z,0.80
2018-05-02T14:57:52.397Z,0.80
2018-05-02T14:59:55.898Z,1.07
2018-05-02T15:01:59.336Z,0.90
2018-05-02T15:04:02.890Z,1.53
2018-05-02T15:06:06.495Z,0.97
2018-05-02T15:08:10.693Z,0.77
2018-05-02T15:10:14.338Z,1.00
2018-05-02T15:12:18.331Z,0.80
2018-05-02T15:14:22.113Z,0.70
2018-05-02T15:16:25.563Z,0.90
2018-05-02T15:18:28.978Z,0.90
2018-05-02T15:20:32.530Z,0.93
2018-05-02T15:22:36.004Z,1.00
2018-05-02T17:45:44.804Z,1.20
2018-05-02T17:47:49.222Z,1.10
2018-05-02T17:49:52.656Z,1.00
2018-05-02T17:51:58.102Z,1.23
2018-05-02T17:54:01.588Z,0.80
2018-05-02T17:56:04.984Z,1.10
2018-05-02T17:58:08.483Z,1.20
2018-05-02T18:00:11.949Z,1.00
2018-05-02T18:02:15.334Z,1.00
2018-05-02T18:04:18.737Z,1.10
2018-05-02T18:06:22.138Z,1.43
2018-05-02T18:08:26.849Z,0.90
2018-05-02T18:10:30.988Z,0.93
2018-05-02T18:12:34.562Z,1.00
2018-05-02T18:14:38.060Z,1.13
2018-05-02T18:16:42.116Z,1.07
2018-05-02T18:18:45.559Z,0.80
2018-05-02T18:20:49.050Z,0.97
2018-05-02T18:22:52.831Z,1.00
2018-05-02T18:24:56.454Z,1.07
2018-05-02T18:27:00.044Z,1.37
2018-05-02T18:29:03.586Z,1.40
2018-05-02T18:31:07.253Z,1.10
2018-05-02T18:33:10.650Z,1.13
2018-05-02T18:35:14.072Z,0.93
2018-05-02T18:37:17.459Z,1.20
2018-05-02T18:39:20.822Z,1.07
2018-05-02T18:41:24.244Z,0.90
2018-05-02T18:43:27.610Z,1.10
2018-05-02T18:45:31.023Z,0.90
2018-05-02T18:47:34.539Z,1.10
2018-05-02T18:49:37.925Z,1.10
2018-05-02T18:51:41.799Z,1.23
2018-05-02T18:53:45.360Z,1.10
2018-05-02T18:55:48.790Z,0.93
2018-05-02T18:57:52.807Z,1.00
2018-05-02T18:59:57.731Z,1.10
2018-05-02T19:02:01.189Z,1.10
2018-05-02T19:04:04.784Z,1.30
2018-05-02T19:06:09.215Z,1.20
2018-05-02T19:08:13.820Z,1.10
2018-05-02T19:10:17.639Z,1.30
2018-05-02T19:12:21.245Z,1.23
2018-05-02T19:14:24.892Z,1.30
2018-05-02T19:16:28.855Z,1.03
2018-05-02T19:18:37.863Z,1.30
2018-05-02T19:20:42.290Z,1.10
2018-05-02T19:22:45.691Z,1.17
2018-05-02T19:24:55.106Z,1.10
2018-05-02T19:26:59.323Z,1.23
2018-05-02T19:29:02.988Z,1.10
2018-05-02T19:31:11.832Z,1.17
2018-05-02T19:33:21.005Z,1.60
2018-05-02T19:35:25.450Z,1.10
2018-05-02T19:37:29.049Z,1.10
2018-05-02T19:39:37.973Z,1.33
2018-05-02T19:41:46.779Z,1.00
2018-05-02T19:43:56.051Z,1.20
2018-05-02T19:45:59.459Z,1.23
2018-05-02T19:48:04.233Z,1.17
2018-05-02T19:50:07.613Z,1.37
2018-05-02T19:52:17.285Z,1.07
2018-05-02T19:54:21.209Z,1.30
2018-05-02T19:56:24.909Z,1.07
2018-05-02T19:58:28.277Z,1.30
2018-05-02T20:00:38.539Z,1.03
2018-05-02T20:02:47.340Z,1.20
2018-05-02T20:04:51.164Z,1.10
2018-05-02T20:06:54.570Z,1.30
2018-05-02T20:09:03.510Z,1.20
2018-05-02T20:11:12.377Z,1.20
2018-05-02T20:13:21.079Z,1.20
2018-05-02T20:15:24.458Z,1.47
2018-05-02T20:17:28.071Z,1.37
2018-05-02T20:19:31.571Z,1.40
2018-05-02T20:21:34.937Z,1.20
2018-05-02T20:23:38.103Z,1.53
2018-05-02T20:25:41.531Z,1.30
2018-05-02T20:27:44.968Z,1.20
2018-05-02T20:29:48.357Z,1.83
2018-05-02T20:31:51.769Z,1.47
2018-05-02T20:33:55.134Z,1.30
2018-05-02T20:35:58.499Z,1.17
2018-05-02T20:38:01.939Z,1.10
2018-05-02T20:40:05.312Z,1.67
2018-05-02T20:42:09.158Z,1.43
2018-05-02T20:44:12.686Z,1.30
2018-05-02T20:46:16.333Z,1.57
2018-05-02T20:48:21.236Z,1.40
2018-05-02T20:50:24.611Z,1.50
2018-05-02T20:52:28.040Z,1.03
2018-05-02T20:54:31.418Z,1.43
2018-05-02T20:56:35.294Z,1.40
2018-05-02T20:58:38.671Z,1.20
2018-05-02T21:00:42.128Z,1.30
2018-05-02T21:02:45.530Z,1.50
2018-05-02T21:04:49.147Z,1.50
2018-05-02T21:06:52.513Z,1.50
2018-05-02T21:08:55.890Z,1.50
2018-05-02T21:10:59.283Z,1.30
2018-05-02T21:13:02.689Z,1.60
2018-05-02T21:15:06.127Z,1.60
2018-05-02T21:17:09.980Z,1.30
2018-05-02T21:19:15.096Z,1.20
2018-05-02T21:21:18.459Z,1.50
2018-05-02T21:23:21.873Z,1.43
2018-05-02T21:25:25.232Z,1.20
2018-05-02T21:27:28.639Z,1.50
2018-05-02T21:29:32.009Z,1.43
2018-05-02T21:31:35.385Z,1.80
2018-05-02T21:33:38.781Z,1.50
2018-05-02T21:35:42.168Z,1.40
2018-05-02T21:37:45.583Z,1.60
2018-05-02T21:39:49.047Z,1.37
2018-05-02T21:41:52.411Z,1.50
2018-05-02T21:43:55.778Z,1.50
2018-05-02T21:45:59.150Z,1.50
2018-05-02T21:48:02.562Z,1.53
2018-05-02T21:50:05.931Z,1.63
2018-05-02T21:52:09.318Z,1.77
2018-05-02T21:54:12.765Z,1.53
2018-05-02T21:56:16.263Z,1.70
2018-05-02T21:58:19.699Z,1.53
2018-05-02T22:00:23.159Z,1.40
2018-05-02T22:02:26.541Z,1.73
2018-05-02T22:04:29.924Z,1.70
2018-05-02T22:06:33.321Z,1.33
2018-05-02T22:08:36.732Z,1.53
2018-05-02T22:10:40.106Z,1.50
2018-05-02T22:12:43.481Z,1.63
2018-05-02T22:14:46.866Z,1.40
2018-05-02T22:16:50.267Z,1.57
2018-05-02T22:18:53.674Z,1.50
2018-05-02T22:20:57.131Z,1.73
2018-05-02T22:23:00.541Z,1.60
2018-05-02T22:25:03.920Z,1.70
2018-05-02T22:27:07.309Z,1.60
2018-05-02T22:29:10.715Z,1.70
2018-05-02T22:31:14.089Z,1.60
2018-05-02T22:33:17.549Z,1.97
2018-05-02T22:35:20.954Z,1.70
2018-05-02T22:37:24.325Z,1.77
2018-05-02T22:39:27.735Z,1.60
2018-05-02T22:41:31.188Z,1.40
2018-05-02T22:43:34.604Z,1.77
2018-05-02T22:45:38.056Z,1.73
2018-05-02T22:47:41.420Z,1.50
2018-05-02T22:49:44.842Z,1.60
2018-05-02T22:51:48.212Z,1.90
2018-05-02T22:53:51.628Z,1.77
2018-05-02T22:55:55.010Z,1.53
2018-05-02T22:57:58.391Z,1.70
2018-05-02T23:00:01.786Z,1.90
2018-05-02T23:02:05.164Z,1.87
2018-05-02T23:04:08.554Z,1.77
2018-05-02T23:06:11.925Z,1.57
2018-05-02T23:08:16.645Z,1.60
2018-05-02T23:10:20.109Z,1.70
2018-05-02T23:12:23.478Z,1.80
2018-05-02T23:14:26.884Z,1.80
2018-05-02T23:16:29.855Z,1.70
2018-05-02T23:18:33.214Z,1.77
2018-05-02T23:20:36.597Z,1.50
2018-05-02T23:22:39.978Z,1.73
2018-05-02T23:24:43.379Z,1.83
2018-05-02T23:26:46.788Z,1.60
2018-05-02T23:28:50.345Z,1.73
2018-05-02T23:30:53.839Z,1.80
2018-05-02T23:32:57.225Z,1.40
2018-05-02T23:35:00.664Z,1.70
2018-05-02T23:37:04.028Z,1.90
2018-05-02T23:39:07.409Z,1.60
2018-05-02T23:41:10.781Z,1.90
2018-05-02T23:43:14.158Z,1.93
2018-05-02T23:45:17.553Z,1.87
2018-05-02T23:47:20.924Z,1.40
2018-05-02T23:49:24.321Z,1.80
2018-05-02T23:51:27.703Z,2.10
2018-05-02T23:53:31.082Z,1.60
2018-05-02T23:55:34.486Z,1.50
2018-05-02T23:57:37.857Z,1.60
2018-05-02T23:59:41.286Z,1.97
